createdAt,value
2023-02-28T00:00:25.251Z,3.31
2023-02-28T00:02:51.910Z,3.11
2023-02-28T00:05:20.410Z,2.67
2023-02-28T00:07:47.421Z,3.26
2023-02-28T00:10:16.967Z,3.38
2023-02-28T00:12:43.384Z,2.84
2023-02-28T00:15:11.660Z,3.37
2023-02-28T00:17:38.500Z,3.49
2023-02-28T00:20:11.006Z,3.29
2023-02-28T00:22:42.543Z,3.43
2023-02-28T00:25:10.872Z,3.52
2023-02-28T00:27:38.433Z,3.52
2023-02-28T00:30:06.793Z,2.98
2023-02-28T00:32:33.398Z,3.08
2023-02-28T00:34:59.823Z,3.43
2023-02-28T00:37:26.290Z,3.64
2023-02-28T00:39:53.077Z,3.64
2023-02-28T00:42:19.529Z,3.25
2023-02-28T00:44:45.960Z,3.39
2023-02-28T00:47:12.372Z,3.67
2023-02-28T00:49:39.042Z,3.32
2023-02-28T00:52:05.598Z,3.34
2023-02-28T00:54:32.033Z,2.99
2023-02-28T00:56:59.286Z,3.62
2023-02-28T00:59:25.786Z,3.48
2023-02-28T01:01:52.443Z,3.51
2023-02-28T01:04:19.014Z,3.57
2023-02-28T01:06:45.489Z,3.29
2023-02-28T01:09:12.409Z,3.57
2023-02-28T01:11:39.151Z,3.69
2023-02-28T01:14:05.963Z,3.78
2023-02-28T01:16:32.624Z,3.61
2023-02-28T01:18:59.197Z,3.64
2023-02-28T01:21:25.716Z,3.61
2023-02-28T01:23:52.443Z,3.92
2023-02-28T01:26:23.134Z,3.69
2023-02-28T01:28:51.192Z,3.94
2023-02-28T01:31:19.217Z,3.87
2023-02-28T01:33:46.247Z,4.01
2023-02-28T01:36:22.603Z,3.99
2023-02-28T01:38:49.672Z,4.06
2023-02-28T01:41:21.817Z,4.04
2023-02-28T01:43:48.124Z,4.08
2023-02-28T01:46:15.339Z,4.07
2023-02-28T01:48:45.307Z,4.06
2023-02-28T01:51:20.220Z,4.05
2023-02-28T01:53:49.468Z,4.06
2023-02-28T01:56:21.321Z,3.89
2023-02-28T01:58:49.611Z,4.01
2023-02-28T02:01:22.223Z,3.94
2023-02-28T02:03:57.320Z,4.09
2023-02-28T02:06:29.180Z,3.83
2023-02-28T02:08:55.713Z,3.76
2023-02-28T02:11:23.401Z,3.76
2023-02-28T02:14:14.293Z,4.12
2023-02-28T02:17:10.590Z,4.08
2023-02-28T02:20:04.117Z,4.10
2023-02-28T02:22:51.276Z,4.12
2023-02-28T02:25:20.822Z,4.17
2023-02-28T02:28:14.677Z,4.08
2023-02-28T02:30:53.165Z,4.12
2023-02-28T02:34:04.376Z,4.10
2023-02-28T02:36:39.772Z,3.77
2023-02-28T02:39:12.723Z,4.17
2023-02-28T02:41:48.177Z,3.92
2023-02-28T02:44:23.014Z,3.87
2023-02-28T02:46:52.379Z,3.63
2023-02-28T02:49:35.982Z,3.91
2023-02-28T02:52:05.818Z,4.20
2023-02-28T02:54:35.898Z,3.46
2023-02-28T02:57:06.207Z,3.95
2023-02-28T02:59:33.361Z,4.22
2023-02-28T03:02:03.502Z,4.03
2023-02-28T03:04:34.353Z,4.11
2023-02-28T03:07:00.796Z,4.07
2023-02-28T03:09:27.445Z,4.12
2023-02-28T03:11:55.778Z,4.27
2023-02-28T03:14:30.332Z,4.22
2023-02-28T03:17:21.070Z,4.13
2023-02-28T03:20:01.189Z,4.28
2023-02-28T03:22:37.334Z,4.15
2023-02-28T03:25:18.331Z,3.95
2023-02-28T03:28:03.936Z,4.04
2023-02-28T03:30:36.472Z,3.82
2023-02-28T03:33:17.693Z,4.11
2023-02-28T03:35:49.550Z,3.84
2023-02-28T03:38:30.792Z,4.09
2023-02-28T03:41:13.546Z,4.06
2023-02-28T03:43:42.775Z,3.72
2023-02-28T03:46:13.236Z,4.25
2023-02-28T03:48:42.775Z,4.14
2023-02-28T03:51:11.185Z,3.99
2023-02-28T03:53:42.631Z,4.18
2023-02-28T03:56:19.223Z,4.18
2023-02-28T03:58:59.807Z,4.13
2023-02-28T04:01:29.643Z,4.23
2023-02-28T04:03:56.190Z,4.07
2023-02-28T04:06:24.271Z,4.24
2023-02-28T04:08:51.159Z,4.24
2023-02-28T04:11:31.717Z,3.82
2023-02-28T04:13:58.235Z,3.84
2023-02-28T04:16:35.115Z,4.17
2023-02-28T04:19:03.951Z,4.14
2023-02-28T04:21:31.628Z,4.29
2023-02-28T04:24:01.502Z,4.32
2023-02-28T04:26:35.022Z,3.80
2023-02-28T04:29:02.432Z,4.33
2023-02-28T04:31:29.211Z,3.92
2023-02-28T04:33:55.834Z,3.63
2023-02-28T04:36:23.941Z,4.01
2023-02-28T04:38:51.131Z,4.32
2023-02-28T04:41:18.082Z,4.32
2023-02-28T04:43:44.510Z,4.18
2023-02-28T04:46:11.427Z,4.07
2023-02-28T04:48:39.217Z,3.95
2023-02-28T04:51:07.780Z,3.68
2023-02-28T04:53:34.889Z,4.07
2023-02-28T04:56:01.802Z,4.18
2023-02-28T04:58:29.014Z,3.15
2023-02-28T05:01:02.395Z,3.55
2023-02-28T05:03:28.956Z,3.91
2023-02-28T05:05:55.358Z,3.44
2023-02-28T05:08:21.749Z,3.72
2023-02-28T05:10:48.443Z,3.74
2023-02-28T05:13:14.911Z,3.62
2023-02-28T05:15:41.309Z,3.69
2023-02-28T05:18:09.396Z,3.64
2023-02-28T05:20:35.806Z,3.38
2023-02-28T05:23:02.464Z,3.61
2023-02-28T05:25:28.933Z,3.10
2023-02-28T05:27:55.326Z,3.06
2023-02-28T05:30:21.800Z,3.18
2023-02-28T05:32:52.121Z,3.72
2023-02-28T05:35:19.258Z,3.24
2023-02-28T05:37:45.688Z,3.31
2023-02-28T05:40:12.463Z,3.50
2023-02-28T05:42:39.181Z,3.49
2023-02-28T05:45:07.864Z,3.62
2023-02-28T05:47:34.459Z,3.50
2023-02-28T05:50:01.333Z,3.23
2023-02-28T05:52:28.588Z,3.25
2023-02-28T05:54:55.028Z,3.16
2023-02-28T05:57:24.577Z,3.29
2023-02-28T05:59:51.461Z,3.14
2023-02-28T06:02:18.515Z,3.28
2023-02-28T06:04:45.542Z,3.23
2023-02-28T06:07:12.100Z,2.86
2023-02-28T06:09:38.917Z,2.75
2023-02-28T06:12:08.070Z,2.81
2023-02-28T06:14:35.316Z,2.64
2023-02-28T06:17:02.268Z,2.14
2023-02-28T06:19:29.595Z,2.60
2023-02-28T06:21:57.797Z,2.66
2023-02-28T06:24:25.446Z,2.55
2023-02-28T06:26:51.983Z,2.38
2023-02-28T06:29:19.319Z,2.52
2023-02-28T06:31:46.790Z,2.54
2023-02-28T06:34:14.421Z,2.55
2023-02-28T06:36:42.244Z,1.90
2023-02-28T06:39:09.123Z,2.54
2023-02-28T06:41:53.555Z,2.08
2023-02-28T06:44:22.160Z,2.15
2023-02-28T06:46:48.644Z,2.09
2023-02-28T06:49:15.817Z,2.32
2023-02-28T06:51:45.975Z,2.50
2023-02-28T06:54:12.778Z,2.22
2023-02-28T06:56:39.192Z,2.53
2023-02-28T06:59:06.082Z,2.42
2023-02-28T07:01:33.708Z,2.51
2023-02-28T07:04:01.207Z,2.60
2023-02-28T07:06:28.057Z,2.66
2023-02-28T07:08:55.025Z,2.63
2023-02-28T07:11:29.314Z,2.58
2023-02-28T07:13:56.893Z,2.15
2023-02-28T07:16:24.753Z,2.75
2023-02-28T07:18:53.597Z,2.58
2023-02-28T07:21:20.076Z,2.32
2023-02-28T07:23:46.655Z,2.96
2023-02-28T07:26:16.198Z,2.83
2023-02-28T07:28:43.582Z,2.86
2023-02-28T07:31:11.012Z,3.10
2023-02-28T07:33:37.959Z,3.13
2023-02-28T07:36:07.461Z,3.14
2023-02-28T07:38:38.316Z,3.02
2023-02-28T07:41:05.283Z,3.23
2023-02-28T07:43:32.640Z,3.25
2023-02-28T07:46:07.914Z,2.88
2023-02-28T07:48:34.356Z,3.24
2023-02-28T07:51:01.414Z,3.08
2023-02-28T07:53:28.458Z,3.24
2023-02-28T07:55:59.072Z,3.15
2023-02-28T07:58:26.882Z,3.36
2023-02-28T08:00:53.619Z,3.24
2023-02-28T08:03:22.096Z,2.49
2023-02-28T08:05:48.915Z,3.22
2023-02-28T08:08:16.472Z,3.21
2023-02-28T08:10:43.189Z,3.20
2023-02-28T08:13:09.743Z,2.69
2023-02-28T08:15:37.240Z,3.23
2023-02-28T08:18:04.201Z,3.35
2023-02-28T08:20:30.738Z,3.22
2023-02-28T08:22:57.167Z,3.35
2023-02-28T08:25:23.664Z,3.16
2023-02-28T08:27:52.696Z,3.00
2023-02-28T08:30:24.927Z,3.52
2023-02-28T08:32:51.479Z,3.46
2023-02-28T08:35:17.944Z,3.60
2023-02-28T08:37:44.405Z,3.24
2023-02-28T08:40:11.837Z,3.27
2023-02-28T08:42:38.297Z,3.07
2023-02-28T08:45:05.224Z,3.78
2023-02-28T08:47:32.713Z,3.83
2023-02-28T08:49:59.095Z,3.80
2023-02-28T08:52:25.614Z,3.30
2023-02-28T08:54:52.056Z,3.84
2023-02-28T08:57:18.439Z,3.73
2023-02-28T08:59:44.821Z,3.94
2023-02-28T09:02:14.196Z,3.74
2023-02-28T09:04:41.107Z,4.12
2023-02-28T09:07:07.788Z,3.76
2023-02-28T09:09:34.211Z,4.06
2023-02-28T09:12:00.827Z,3.72
2023-02-28T09:14:27.309Z,3.80
2023-02-28T09:16:53.849Z,4.01
2023-02-28T09:19:20.323Z,4.12
2023-02-28T09:21:46.863Z,3.62
2023-02-28T09:24:15.297Z,3.76
2023-02-28T09:26:47.218Z,4.11
2023-02-28T09:29:22.168Z,4.19
2023-02-28T09:31:48.696Z,3.98
2023-02-28T09:34:15.223Z,4.03
2023-02-28T09:36:45.514Z,4.23
2023-02-28T09:39:13.377Z,4.61
2023-02-28T09:41:49.406Z,4.68
2023-02-28T09:44:28.055Z,4.46
2023-02-28T09:47:00.248Z,4.91
2023-02-28T09:49:33.168Z,4.96
2023-02-28T09:52:35.963Z,5.15
2023-02-28T09:55:20.499Z,5.58
2023-02-28T09:57:47.292Z,5.88
2023-02-28T10:00:24.189Z,5.94
2023-02-28T10:03:01.038Z,6.58
2023-02-28T10:05:44.816Z,6.35
2023-02-28T10:09:03.637Z,6.59
2023-02-28T10:11:32.472Z,6.59
2023-02-28T10:14:03.506Z,6.71
2023-02-28T10:16:37.105Z,6.53
2023-02-28T10:19:06.544Z,6.32
2023-02-28T10:21:37.002Z,6.15
2023-02-28T10:26:39.579Z,5.94
2023-02-28T10:29:06.000Z,6.29
2023-02-28T10:31:32.476Z,6.43
2023-02-28T10:33:58.995Z,6.53
2023-02-28T10:36:25.465Z,6.71
2023-02-28T10:38:51.878Z,6.65
2023-02-28T10:41:29.592Z,6.77
2023-02-28T10:44:22.766Z,7.25
2023-02-28T10:46:50.031Z,8.26
2023-02-28T10:49:21.882Z,8.67
2023-02-28T10:51:51.091Z,9.74
2023-02-28T10:54:20.626Z,9.66
2023-02-28T10:56:47.209Z,10.01
2023-02-28T10:59:28.365Z,9.47
2023-02-28T11:01:55.015Z,9.31
2023-02-28T11:04:30.664Z,10.30
2023-02-28T11:07:01.662Z,11.12
2023-02-28T11:09:40.167Z,12.11
2023-02-28T11:12:08.676Z,12.52
2023-02-28T11:14:41.346Z,12.65
2023-02-28T11:17:34.259Z,12.86
2023-02-28T11:20:04.397Z,13.70
2023-02-28T11:22:33.562Z,13.72
2023-02-28T11:25:02.689Z,14.32
2023-02-28T11:27:32.311Z,13.85
2023-02-28T11:29:59.048Z,13.20
2023-02-28T11:32:31.341Z,13.99
2023-02-28T11:35:05.538Z,13.94
2023-02-28T11:37:32.947Z,13.89
2023-02-28T11:39:59.391Z,14.10
2023-02-28T11:42:47.033Z,13.53
2023-02-28T11:45:18.827Z,12.93
2023-02-28T11:48:13.374Z,11.88
2023-02-28T11:51:12.331Z,11.41
2023-02-28T11:54:18.859Z,11.18
2023-02-28T11:56:47.554Z,11.11
2023-02-28T11:59:35.821Z,10.96
2023-02-28T12:02:26.550Z,11.12
2023-02-28T12:05:14.620Z,10.92
2023-02-28T12:07:57.464Z,10.37
2023-02-28T12:10:30.459Z,10.06
2023-02-28T12:13:13.171Z,10.22
2023-02-28T12:15:51.765Z,9.68
2023-02-28T12:18:24.346Z,9.35
2023-02-28T12:20:57.945Z,9.18
2023-02-28T12:23:53.209Z,9.10
2023-02-28T12:26:32.593Z,9.03
2023-02-28T12:29:05.415Z,9.12
2023-02-28T12:31:36.290Z,9.06
2023-02-28T12:34:07.550Z,8.90
2023-02-28T12:36:35.159Z,8.49
2023-02-28T12:39:05.342Z,8.85
2023-02-28T12:41:51.766Z,9.38
2023-02-28T12:44:36.458Z,9.97
2023-02-28T12:47:13.093Z,9.94
2023-02-28T12:49:43.990Z,10.56
2023-02-28T12:52:13.647Z,10.71
2023-02-28T12:55:03.129Z,10.95
2023-02-28T12:57:38.393Z,11.31
2023-02-28T13:00:20.582Z,11.83
2023-02-28T13:03:05.325Z,11.50
2023-02-28T13:06:08.999Z,11.84
2023-02-28T13:09:00.773Z,11.56
2023-02-28T13:11:40.989Z,11.28
2023-02-28T13:14:39.803Z,10.91
2023-02-28T13:17:12.825Z,10.64
2023-02-28T13:19:45.027Z,9.85
2023-02-28T13:22:20.506Z,10.02
2023-02-28T13:24:54.762Z,9.65
2023-02-28T13:27:43.722Z,9.26
2023-02-28T13:30:47.973Z,9.01
2023-02-28T13:33:20.577Z,9.06
2023-02-28T13:35:47.496Z,8.82
2023-02-28T13:38:18.428Z,8.95
2023-02-28T13:40:45.111Z,8.91
2023-02-28T13:43:11.604Z,8.84
2023-02-28T13:45:39.675Z,8.96
2023-02-28T13:48:18.444Z,8.87
2023-02-28T13:50:45.881Z,8.83
2023-02-28T13:53:12.351Z,9.65
2023-02-28T13:55:48.236Z,9.95
2023-02-28T13:58:42.798Z,10.57
2023-02-28T14:01:27.756Z,11.14
2023-02-28T14:04:13.431Z,12.04
2023-02-28T14:06:40.799Z,12.21
2023-02-28T14:09:20.412Z,12.53
2023-02-28T14:11:47.842Z,12.94
2023-02-28T14:14:36.302Z,13.10
2023-02-28T14:17:04.548Z,14.05
2023-02-28T14:19:34.026Z,14.39
2023-02-28T14:22:20.685Z,14.86
2023-02-28T14:25:05.666Z,14.22
2023-02-28T14:27:55.248Z,14.66
2023-02-28T14:30:44.526Z,14.14
2023-02-28T14:33:20.224Z,15.54
2023-02-28T14:35:53.241Z,14.80
2023-02-28T14:38:33.180Z,16.04
2023-02-28T14:41:01.882Z,16.61
2023-02-28T14:43:29.322Z,16.17
2023-02-28T14:46:01.737Z,16.75
2023-02-28T14:48:28.428Z,16.44
2023-02-28T14:50:57.766Z,16.60
2023-02-28T14:53:27.479Z,16.58
2023-02-28T14:55:54.171Z,16.92
2023-02-28T14:58:31.954Z,16.86
2023-02-28T15:01:03.582Z,17.44
2023-02-28T15:03:38.613Z,16.80
2023-02-28T15:06:23.983Z,17.45
2023-02-28T15:09:11.364Z,17.54
2023-02-28T15:11:39.213Z,17.60
2023-02-28T15:14:05.806Z,17.20
2023-02-28T15:16:39.753Z,17.35
2023-02-28T15:19:09.084Z,17.55
2023-02-28T15:21:37.572Z,17.04
2023-02-28T15:24:12.361Z,17.70
2023-02-28T15:26:41.157Z,18.17
2023-02-28T15:29:20.770Z,17.57
2023-02-28T15:32:08.224Z,17.55
2023-02-28T15:34:43.376Z,17.87
2023-02-28T15:37:45.909Z,17.04
2023-02-28T15:40:30.883Z,17.47
2023-02-28T15:43:07.070Z,16.95
2023-02-28T15:45:47.100Z,16.59
2023-02-28T15:48:19.867Z,17.18
2023-02-28T15:50:50.334Z,17.31
2023-02-28T15:53:20.645Z,17.43
2023-02-28T15:55:57.441Z,17.10
2023-02-28T15:58:25.386Z,17.13
2023-02-28T16:01:16.959Z,16.80
2023-02-28T16:03:49.672Z,17.37
2023-02-28T16:06:34.435Z,16.63
2023-02-28T16:09:01.105Z,15.34
2023-02-28T16:11:27.839Z,13.90
2023-02-28T16:13:54.883Z,13.15
2023-02-28T16:16:23.850Z,12.53
2023-02-28T16:18:50.360Z,11.93
2023-02-28T16:21:17.072Z,11.21
2023-02-28T16:23:43.675Z,10.55
2023-02-28T16:26:19.608Z,10.39
2023-02-28T16:28:46.108Z,9.69
2023-02-28T16:31:17.330Z,9.76
2023-02-28T16:33:45.647Z,8.98
2023-02-28T16:36:18.498Z,9.13
2023-02-28T16:38:45.267Z,9.11
2023-02-28T16:41:23.269Z,8.68
2023-02-28T16:43:52.657Z,8.78
2023-02-28T16:46:19.652Z,8.08
2023-02-28T16:48:46.764Z,8.43
2023-02-28T16:51:16.838Z,8.37
2023-02-28T16:53:44.387Z,8.11
2023-02-28T16:56:22.373Z,7.78
2023-02-28T16:58:49.569Z,7.39
2023-02-28T17:01:17.049Z,7.43
2023-02-28T17:03:43.571Z,7.41
2023-02-28T17:06:22.015Z,7.45
2023-02-28T17:08:52.226Z,6.71
2023-02-28T17:11:19.606Z,7.34
2023-02-28T17:13:46.896Z,7.30
2023-02-28T17:16:21.352Z,7.05
2023-02-28T17:18:47.821Z,6.88
2023-02-28T17:21:16.212Z,6.80
2023-02-28T17:23:42.978Z,6.45
2023-02-28T17:26:18.492Z,6.21
2023-02-28T17:28:44.885Z,6.30
2023-02-28T17:31:11.444Z,6.09
2023-02-28T17:33:38.059Z,6.08
2023-02-28T17:36:04.921Z,5.18
2023-02-28T17:38:31.411Z,5.75
2023-02-28T17:41:00.934Z,5.82
2023-02-28T17:43:28.137Z,6.06
2023-02-28T17:45:55.644Z,5.26
2023-02-28T17:48:22.098Z,5.78
2023-02-28T17:50:48.696Z,5.57
2023-02-28T17:53:15.140Z,5.58
2023-02-28T17:55:41.641Z,5.24
2023-02-28T17:58:10.667Z,5.59
2023-02-28T18:00:37.100Z,6.20
2023-02-28T18:03:04.169Z,5.48
2023-02-28T18:05:30.922Z,5.47
2023-02-28T18:07:57.405Z,5.39
2023-02-28T18:10:23.985Z,5.12
2023-02-28T18:12:52.060Z,4.99
2023-02-28T18:15:21.031Z,5.58
2023-02-28T18:17:48.563Z,5.13
2023-02-28T18:20:15.451Z,5.05
2023-02-28T18:22:43.298Z,4.93
2023-02-28T18:25:14.564Z,4.75
2023-02-28T18:27:53.775Z,4.82
2023-02-28T18:30:21.640Z,4.99
2023-02-28T18:32:48.566Z,5.15
2023-02-28T18:35:15.236Z,5.08
2023-02-28T18:37:41.614Z,4.83
2023-02-28T18:40:08.877Z,4.85
2023-02-28T18:42:35.326Z,4.50
2023-02-28T18:45:01.794Z,4.38
2023-02-28T18:47:28.257Z,4.59
2023-02-28T18:49:54.686Z,4.36
2023-02-28T18:52:21.118Z,4.20
2023-02-28T18:54:47.610Z,4.47
2023-02-28T18:57:14.020Z,3.77
2023-02-28T18:59:40.439Z,3.95
2023-02-28T19:02:06.823Z,3.68
2023-02-28T19:04:33.247Z,3.65
2023-02-28T19:06:59.702Z,3.53
2023-02-28T19:09:26.166Z,3.54
2023-02-28T19:11:52.566Z,4.25
2023-02-28T19:14:20.164Z,3.77
2023-02-28T19:16:47.303Z,3.78
2023-02-28T19:19:13.918Z,3.65
2023-02-28T19:21:40.367Z,3.36
2023-02-28T19:24:06.886Z,3.78
2023-02-28T19:26:33.703Z,3.99
2023-02-28T19:29:03.594Z,3.92
2023-02-28T19:31:30.409Z,3.78
2023-02-28T19:33:58.963Z,3.81
2023-02-28T19:36:25.517Z,3.49
2023-02-28T19:38:51.918Z,3.36
2023-02-28T19:41:19.276Z,3.68
2023-02-28T19:43:46.303Z,3.70
2023-02-28T19:46:13.032Z,3.45
2023-02-28T19:48:39.699Z,3.18
2023-02-28T19:51:09.451Z,3.39
2023-02-28T19:53:37.046Z,3.37
2023-02-28T19:56:04.471Z,3.23
2023-02-28T19:58:31.458Z,3.25
2023-02-28T20:00:58.086Z,3.15
2023-02-28T20:03:24.668Z,2.98
2023-02-28T20:06:07.296Z,2.97
2023-02-28T20:08:34.221Z,2.99
2023-02-28T20:11:08.676Z,3.03
2023-02-28T20:13:35.434Z,2.80
2023-02-28T20:16:05.950Z,2.34
2023-02-28T20:18:33.279Z,2.71
2023-02-28T20:20:59.708Z,2.58
2023-02-28T20:23:26.888Z,2.06
2023-02-28T20:25:53.580Z,2.52
2023-02-28T20:28:20.487Z,2.49
2023-02-28T20:30:48.758Z,2.66
2023-02-28T20:33:18.878Z,2.41
2023-02-28T20:35:45.670Z,2.44
2023-02-28T20:38:12.496Z,1.38
2023-02-28T20:40:39.140Z,2.36
2023-02-28T20:43:05.614Z,1.73
2023-02-28T20:45:32.087Z,1.77
2023-02-28T20:47:58.718Z,2.18
2023-02-28T20:50:25.167Z,2.23
2023-02-28T20:52:51.622Z,2.18
2023-02-28T20:55:19.119Z,1.87
2023-02-28T20:57:48.372Z,1.77
2023-02-28T21:00:20.481Z,1.77
2023-02-28T21:02:46.981Z,1.51
2023-02-28T21:05:14.219Z,1.36
2023-02-28T21:07:40.670Z,2.20
2023-02-28T21:10:09.429Z,1.97
2023-02-28T21:12:36.234Z,2.11
2023-02-28T21:15:02.898Z,2.07
2023-02-28T21:17:29.544Z,1.24
2023-02-28T21:19:55.944Z,1.83
2023-02-28T21:22:22.332Z,1.46
2023-02-28T21:24:48.772Z,1.65
2023-02-28T21:27:15.663Z,1.05
2023-02-28T21:29:42.104Z,1.27
2023-02-28T21:32:08.637Z,1.40
2023-02-28T21:34:35.104Z,1.43
2023-02-28T21:37:01.997Z,1.06
2023-02-28T21:39:30.147Z,1.47
2023-02-28T21:42:02.123Z,1.65
2023-02-28T21:44:29.946Z,1.73
2023-02-28T21:47:00.992Z,1.48
2023-02-28T21:49:27.805Z,1.07
2023-02-28T21:51:54.224Z,1.01
2023-02-28T21:54:20.688Z,0.98
2023-02-28T21:56:47.099Z,1.62
2023-02-28T21:59:13.646Z,1.06
2023-02-28T22:01:41.634Z,1.63
2023-02-28T22:04:10.441Z,1.52
2023-02-28T22:06:39.796Z,1.36
2023-02-28T22:09:08.229Z,1.44
2023-02-28T22:11:36.389Z,0.71
2023-02-28T22:14:02.805Z,0.82
2023-02-28T22:16:40.841Z,0.76
2023-02-28T22:19:16.907Z,1.18
2023-02-28T22:21:43.521Z,0.77
2023-02-28T22:24:10.550Z,1.37
2023-02-28T22:26:37.316Z,0.85
2023-02-28T22:29:04.420Z,1.28
2023-02-28T22:31:32.666Z,0.50
2023-02-28T22:34:02.009Z,0.93
2023-02-28T22:36:29.548Z,1.24
2023-02-28T22:38:57.555Z,1.11
2023-02-28T22:41:24.689Z,0.92
2023-02-28T22:43:57.059Z,1.16
2023-02-28T22:46:24.410Z,1.18
2023-02-28T22:48:51.042Z,0.82
2023-02-28T22:51:20.444Z,1.15
2023-02-28T22:53:48.653Z,0.93
2023-02-28T22:56:16.679Z,1.06
2023-02-28T22:58:44.911Z,1.09
2023-02-28T23:01:14.113Z,1.03
2023-02-28T23:03:41.542Z,1.07
2023-02-28T23:06:29.509Z,0.92
2023-02-28T23:08:58.521Z,0.93
2023-02-28T23:11:31.031Z,0.96
2023-02-28T23:14:00.334Z,0.96
2023-02-28T23:16:45.866Z,0.53
2023-02-28T23:19:18.544Z,0.94
2023-02-28T23:21:45.757Z,0.87
2023-02-28T23:24:13.640Z,0.63
2023-02-28T23:26:43.759Z,0.86
2023-02-28T23:29:12.773Z,0.22
2023-02-28T23:31:39.719Z,0.07
2023-02-28T23:34:06.301Z,0.89
2023-02-28T23:36:33.236Z,0.66
2023-02-28T23:38:59.882Z,0.39
2023-02-28T23:41:27.674Z,-0.01
2023-02-28T23:43:54.438Z,0.69
2023-02-28T23:46:21.501Z,0.70
2023-02-28T23:48:48.354Z,0.07
2023-02-28T23:51:19.860Z,0.74
2023-02-28T23:53:48.438Z,0.79
2023-02-28T23:56:17.781Z,0.61
2023-02-28T23:58:45.728Z,0.24
